createdAt,value
2023-05-07T00:01:48.941Z,7.95
2023-05-07T00:04:17.364Z,7.25
2023-05-07T00:06:45.513Z,5.95
2023-05-07T00:09:13.726Z,6.12
2023-05-07T00:11:43.382Z,7.30
2023-05-07T00:14:11.463Z,6.95
2023-05-07T00:16:39.495Z,7.95
2023-05-07T00:19:07.730Z,6.30
2023-05-07T00:21:35.754Z,7.72
2023-05-07T00:24:03.800Z,6.05
2023-05-07T00:26:35.307Z,7.07
2023-05-07T00:29:04.703Z,7.03
2023-05-07T00:31:33.040Z,5.55
2023-05-07T00:34:01.074Z,6.05
2023-05-07T00:36:29.180Z,6.30
2023-05-07T00:39:01.018Z,6.22
2023-05-07T00:41:29.120Z,6.90
2023-05-07T00:43:57.715Z,7.80
2023-05-07T00:46:27.431Z,7.03
2023-05-07T00:48:56.286Z,7.35
2023-05-07T00:51:28.331Z,6.68
2023-05-07T00:53:56.501Z,8.38
2023-05-07T00:56:25.659Z,8.10
2023-05-07T00:58:53.814Z,7.35
2023-05-07T01:01:22.264Z,6.57
2023-05-07T01:03:52.030Z,6.68
2023-05-07T01:06:22.287Z,8.57
2023-05-07T01:08:53.925Z,9.02
2023-05-07T01:11:22.699Z,8.40
2023-05-07T01:13:52.644Z,5.72
2023-05-07T01:16:21.446Z,5.60
2023-05-07T01:18:50.128Z,5.20
2023-05-07T01:21:22.182Z,6.60
2023-05-07T01:23:51.769Z,6.32
2023-05-07T01:26:20.667Z,6.15
2023-05-07T01:28:48.898Z,6.43
2023-05-07T01:31:19.117Z,5.43
2023-05-07T01:33:50.149Z,6.80
2023-05-07T01:36:20.874Z,6.90
2023-05-07T01:38:51.060Z,5.60
2023-05-07T01:41:19.564Z,4.75
2023-05-07T01:43:48.489Z,5.10
2023-05-07T01:46:17.838Z,5.20
2023-05-07T01:48:47.311Z,6.22
2023-05-07T01:51:15.470Z,5.30
2023-05-07T01:53:44.888Z,5.35
2023-05-07T01:56:14.305Z,5.65
2023-05-07T01:58:42.495Z,5.35
2023-05-07T02:01:10.775Z,4.43
2023-05-07T02:03:39.768Z,5.68
2023-05-07T02:06:08.973Z,4.78
2023-05-07T02:08:37.519Z,7.50
2023-05-07T02:11:06.144Z,6.57
2023-05-07T02:13:36.781Z,4.95
2023-05-07T02:16:06.810Z,4.97
2023-05-07T02:18:36.739Z,5.80
2023-05-07T02:21:05.095Z,6.50
2023-05-07T02:23:33.351Z,6.30
2023-05-07T02:26:06.137Z,4.18
2023-05-07T02:28:36.806Z,6.97
2023-05-07T02:31:05.731Z,5.60
2023-05-07T02:33:35.629Z,6.07
2023-05-07T02:36:08.707Z,6.35
2023-05-07T02:38:37.594Z,5.78
2023-05-07T02:41:08.363Z,6.68
2023-05-07T02:43:38.548Z,6.55
2023-05-07T02:46:08.142Z,9.07
2023-05-07T02:48:37.093Z,12.15
2023-05-07T02:51:06.466Z,9.30
2023-05-07T02:53:34.984Z,7.40
2023-05-07T02:56:03.859Z,7.32
2023-05-07T02:58:31.916Z,8.68
2023-05-07T03:01:01.889Z,10.63
2023-05-07T03:03:30.696Z,7.43
2023-05-07T03:05:59.123Z,8.93
2023-05-07T03:08:27.622Z,7.78
2023-05-07T03:10:56.109Z,8.52
2023-05-07T03:13:24.303Z,8.13
2023-05-07T03:15:52.446Z,7.40
2023-05-07T03:18:22.412Z,8.07
2023-05-07T03:20:50.884Z,7.68
2023-05-07T03:23:19.333Z,9.68
2023-05-07T03:25:47.539Z,7.43
2023-05-07T03:28:15.681Z,10.00
2023-05-07T03:30:44.069Z,8.68
2023-05-07T03:33:12.481Z,8.05
2023-05-07T03:35:42.486Z,9.00
2023-05-07T03:38:10.973Z,10.73
2023-05-07T03:40:39.798Z,8.77
2023-05-07T03:43:07.957Z,9.85
2023-05-07T03:45:36.931Z,9.25
2023-05-07T03:48:06.652Z,7.90
2023-05-07T03:50:35.153Z,8.70
2023-05-07T03:53:04.665Z,7.28
2023-05-07T03:55:33.212Z,9.02
2023-05-07T03:58:01.622Z,9.80
2023-05-07T04:00:30.301Z,8.38
2023-05-07T04:03:00.413Z,9.15
2023-05-07T04:05:28.916Z,10.52
2023-05-07T04:07:57.446Z,8.98
2023-05-07T04:10:29.180Z,9.25
2023-05-07T04:12:58.141Z,7.97
2023-05-07T04:15:26.862Z,8.50
2023-05-07T04:17:55.117Z,7.93
2023-05-07T04:20:23.636Z,12.57
2023-05-07T04:22:52.828Z,9.35
2023-05-07T04:25:21.071Z,8.80
2023-05-07T04:27:51.703Z,10.52
2023-05-07T04:30:20.744Z,9.95
2023-05-07T04:32:49.922Z,8.55
2023-05-07T04:35:18.603Z,11.40
2023-05-07T04:37:47.054Z,9.45
2023-05-07T04:40:15.824Z,13.70
2023-05-07T04:42:44.395Z,10.60
2023-05-07T04:45:14.526Z,10.00
2023-05-07T04:47:42.919Z,11.60
2023-05-07T04:50:12.175Z,10.52
2023-05-07T04:52:41.347Z,8.73
2023-05-07T04:55:10.981Z,8.68
2023-05-07T04:57:40.600Z,10.23
2023-05-07T05:00:11.447Z,7.50
2023-05-07T05:02:42.969Z,8.75
2023-05-07T05:05:12.168Z,8.93
2023-05-07T05:07:40.462Z,7.82
2023-05-07T05:10:10.092Z,8.57
2023-05-07T05:12:39.273Z,6.62
2023-05-07T05:15:08.950Z,8.38
2023-05-07T05:17:37.649Z,7.53
2023-05-07T05:20:10.826Z,8.43
2023-05-07T05:22:49.045Z,7.18
2023-05-07T05:25:17.648Z,7.00
2023-05-07T05:27:45.740Z,8.50
2023-05-07T05:30:14.952Z,8.13
2023-05-07T05:32:44.596Z,8.15
2023-05-07T05:35:14.903Z,7.15
2023-05-07T05:37:43.568Z,8.73
2023-05-07T05:40:12.829Z,7.30
2023-05-07T05:42:41.220Z,9.27
2023-05-07T05:45:11.207Z,7.85
2023-05-07T05:47:42.575Z,5.53
2023-05-07T05:50:11.665Z,6.20
2023-05-07T05:52:41.802Z,5.87
2023-05-07T05:55:10.929Z,5.78
2023-05-07T05:57:39.939Z,4.65
2023-05-07T06:00:10.141Z,5.68
2023-05-07T06:02:46.804Z,6.53
2023-05-07T06:05:16.486Z,4.57
2023-05-07T06:07:46.187Z,5.40
2023-05-07T06:10:14.581Z,4.25
2023-05-07T06:12:44.972Z,7.20
2023-05-07T06:15:13.274Z,5.10
2023-05-07T06:17:41.939Z,4.28
2023-05-07T06:20:11.470Z,6.32
2023-05-07T06:22:40.403Z,3.62
2023-05-07T06:25:11.723Z,5.57
2023-05-07T06:27:40.883Z,5.28
2023-05-07T06:30:10.975Z,4.55
2023-05-07T06:32:39.633Z,4.12
2023-05-07T06:35:08.102Z,5.35
2023-05-07T06:37:39.327Z,4.75
2023-05-07T06:40:09.230Z,5.03
2023-05-07T06:42:39.301Z,4.20
2023-05-07T06:45:20.997Z,3.62
2023-05-07T06:47:51.190Z,4.87
2023-05-07T06:50:20.315Z,5.70
2023-05-07T06:52:50.456Z,6.43
2023-05-07T06:55:22.620Z,3.60
2023-05-07T06:57:52.467Z,4.62
2023-05-07T07:00:21.972Z,5.68
2023-05-07T07:02:51.914Z,4.10
2023-05-07T07:05:21.243Z,3.83
2023-05-07T07:07:55.811Z,5.68
2023-05-07T07:10:24.685Z,4.18
2023-05-07T07:12:55.052Z,4.78
2023-05-07T07:15:25.951Z,3.33
2023-05-07T07:17:54.983Z,5.70
2023-05-07T07:20:24.176Z,4.87
2023-05-07T07:22:52.542Z,4.87
2023-05-07T07:25:20.921Z,5.37
2023-05-07T07:27:50.754Z,4.22
2023-05-07T07:30:20.326Z,4.43
2023-05-07T07:32:48.597Z,3.67
2023-05-07T07:35:17.759Z,3.40
2023-05-07T07:37:50.883Z,3.35
2023-05-07T07:40:19.602Z,4.70
2023-05-07T07:42:47.902Z,4.12
2023-05-07T07:45:16.279Z,2.95
2023-05-07T07:47:46.192Z,3.53
2023-05-07T07:50:21.995Z,3.10
2023-05-07T07:52:54.308Z,2.87
2023-05-07T07:55:24.033Z,7.15
2023-05-07T07:57:53.049Z,2.95
2023-05-07T08:00:22.315Z,3.60
2023-05-07T08:02:59.058Z,3.80
2023-05-07T08:05:28.806Z,3.65
2023-05-07T08:08:00.726Z,2.72
2023-05-07T08:10:29.774Z,4.55
2023-05-07T08:12:58.302Z,3.75
2023-05-07T08:15:26.962Z,3.78
2023-05-07T08:17:58.509Z,3.10
2023-05-07T08:20:27.536Z,2.60
2023-05-07T08:22:56.544Z,2.42
2023-05-07T08:25:25.848Z,2.95
2023-05-07T08:27:55.422Z,3.17
2023-05-07T08:30:24.973Z,4.15
2023-05-07T08:32:53.923Z,4.07
2023-05-07T08:35:23.989Z,4.57
2023-05-07T08:37:52.562Z,3.42
2023-05-07T08:40:21.539Z,2.90
2023-05-07T08:42:51.868Z,3.40
2023-05-07T08:45:21.936Z,3.97
2023-05-07T08:47:54.881Z,3.92
2023-05-07T08:50:25.178Z,3.80
2023-05-07T08:52:54.089Z,3.40
2023-05-07T08:55:22.915Z,3.40
2023-05-07T08:57:54.054Z,3.58
2023-05-07T09:00:23.167Z,4.97
2023-05-07T09:02:52.876Z,4.78
2023-05-07T09:05:21.572Z,5.03
2023-05-07T09:07:53.931Z,4.95
2023-05-07T09:10:25.751Z,5.22
2023-05-07T09:12:54.861Z,4.03
2023-05-07T09:15:26.062Z,4.82
2023-05-07T09:18:03.662Z,6.90
2023-05-07T09:20:33.559Z,4.70
2023-05-07T09:23:04.440Z,6.35
2023-05-07T09:25:33.787Z,4.25
2023-05-07T09:28:03.805Z,4.90
2023-05-07T09:30:34.749Z,7.75
2023-05-07T09:33:05.312Z,4.28
2023-05-07T09:35:34.564Z,6.05
2023-05-07T09:38:05.900Z,5.57
2023-05-07T09:40:34.565Z,5.37
2023-05-07T09:43:12.718Z,5.60
2023-05-07T09:45:45.109Z,6.20
2023-05-07T09:48:17.949Z,4.62
2023-05-07T09:50:51.319Z,8.20
2023-05-07T09:53:22.141Z,5.55
2023-05-07T09:55:50.941Z,5.75
2023-05-07T09:58:22.042Z,4.68
2023-05-07T10:00:52.402Z,4.93
2023-05-07T10:03:22.127Z,5.12
2023-05-07T10:05:52.250Z,6.95
2023-05-07T10:08:22.820Z,5.03
2023-05-07T10:10:54.439Z,5.90
2023-05-07T10:13:23.363Z,6.28
2023-05-07T10:15:52.970Z,5.82
2023-05-07T10:18:24.600Z,6.70
2023-05-07T10:20:56.367Z,5.75
2023-05-07T10:23:28.065Z,6.15
2023-05-07T10:26:08.325Z,5.90
2023-05-07T10:28:45.715Z,6.57
2023-05-07T10:31:35.502Z,4.45
2023-05-07T10:34:13.132Z,6.65
2023-05-07T10:36:43.849Z,5.05
2023-05-07T10:39:14.618Z,5.90
2023-05-07T10:41:43.792Z,5.03
2023-05-07T10:44:12.804Z,6.05
2023-05-07T10:46:41.836Z,5.45
2023-05-07T10:49:17.693Z,4.43
2023-05-07T10:51:48.222Z,5.70
2023-05-07T10:54:25.996Z,4.37
2023-05-07T10:56:54.708Z,5.90
2023-05-07T10:59:42.704Z,5.78
2023-05-07T11:02:15.572Z,10.45
2023-05-07T11:04:44.575Z,5.10
2023-05-07T11:07:30.316Z,5.32
2023-05-07T11:10:06.583Z,8.23
2023-05-07T11:12:55.993Z,4.40
2023-05-07T11:15:45.658Z,4.95
2023-05-07T11:18:18.574Z,4.53
2023-05-07T11:20:54.115Z,4.75
2023-05-07T11:24:02.333Z,4.93
2023-05-07T11:26:43.170Z,4.85
2023-05-07T11:29:17.447Z,6.12
2023-05-07T11:31:51.762Z,4.65
2023-05-07T11:34:24.658Z,5.03
2023-05-07T11:36:55.050Z,5.82
2023-05-07T11:39:29.928Z,4.62
2023-05-07T11:42:00.244Z,4.12
2023-05-07T11:44:45.095Z,4.22
2023-05-07T11:47:13.672Z,4.90
2023-05-07T11:49:42.474Z,4.43
2023-05-07T11:52:10.605Z,4.82
2023-05-07T11:54:39.293Z,6.93
2023-05-07T11:57:09.308Z,3.30
2023-05-07T11:59:42.089Z,4.78
2023-05-07T12:02:10.851Z,3.50
2023-05-07T12:04:40.283Z,3.95
2023-05-07T12:07:13.013Z,5.20
2023-05-07T12:09:41.587Z,4.07
2023-05-07T12:12:11.442Z,4.85
2023-05-07T12:14:40.610Z,3.87
2023-05-07T12:17:10.104Z,5.35
2023-05-07T12:19:39.969Z,4.70
2023-05-07T12:22:10.220Z,4.07
2023-05-07T12:24:48.160Z,4.12
2023-05-07T12:27:19.066Z,7.20
2023-05-07T12:29:48.525Z,3.75
2023-05-07T12:32:17.917Z,4.03
2023-05-07T12:34:46.220Z,4.25
2023-05-07T12:37:14.900Z,7.10
2023-05-07T12:39:49.205Z,5.18
2023-05-07T12:42:24.507Z,5.72
2023-05-07T12:44:53.266Z,6.32
2023-05-07T12:47:22.871Z,4.90
2023-05-07T12:49:51.203Z,5.87
2023-05-07T12:52:19.521Z,5.68
2023-05-07T12:54:47.547Z,4.97
2023-05-07T12:57:15.587Z,3.87
2023-05-07T12:59:45.792Z,6.85
2023-05-07T13:02:13.769Z,3.42
2023-05-07T13:04:42.220Z,3.47
2023-05-07T13:07:10.625Z,6.82
2023-05-07T13:09:39.046Z,3.67
2023-05-07T13:12:08.177Z,2.95
2023-05-07T13:14:36.498Z,4.70
2023-05-07T13:17:05.851Z,4.03
2023-05-07T13:19:33.932Z,3.05
2023-05-07T13:22:02.586Z,3.47
2023-05-07T13:24:30.653Z,2.90
2023-05-07T13:26:58.645Z,3.00
2023-05-07T13:29:30.960Z,2.72
2023-05-07T13:31:59.370Z,3.37
2023-05-07T13:34:30.286Z,3.65
2023-05-07T13:36:58.524Z,3.28
2023-05-07T13:39:30.403Z,5.15
2023-05-07T13:41:59.033Z,5.40
2023-05-07T13:44:27.230Z,8.18
2023-05-07T13:46:55.424Z,3.15
2023-05-07T13:49:23.902Z,11.02
2023-05-07T13:51:53.324Z,3.95
2023-05-07T13:54:21.845Z,3.12
2023-05-07T13:56:50.193Z,2.70
2023-05-07T13:59:18.715Z,3.45
2023-05-07T14:01:50.684Z,5.03
2023-05-07T14:04:19.164Z,3.25
2023-05-07T14:06:47.250Z,3.00
2023-05-07T14:09:16.740Z,2.78
2023-05-07T14:11:45.542Z,2.87
2023-05-07T14:14:14.136Z,2.25
2023-05-07T14:16:42.416Z,2.78
2023-05-07T14:19:11.069Z,3.97
2023-05-07T14:21:39.122Z,2.53
2023-05-07T14:24:08.751Z,2.70
2023-05-07T14:26:38.608Z,2.08
2023-05-07T14:29:08.845Z,2.65
2023-05-07T14:31:38.412Z,2.70
2023-05-07T14:34:06.905Z,1.65
2023-05-07T14:36:35.685Z,3.53
2023-05-07T14:39:04.493Z,2.40
2023-05-07T14:41:36.984Z,2.30
2023-05-07T14:44:09.813Z,3.08
2023-05-07T14:46:39.608Z,10.10
2023-05-07T14:49:17.374Z,4.03
2023-05-07T14:51:46.597Z,1.75
2023-05-07T14:54:15.863Z,2.33
2023-05-07T14:56:45.786Z,3.97
2023-05-07T14:59:16.987Z,1.95
2023-05-07T15:01:46.562Z,1.35
2023-05-07T15:04:15.554Z,1.33
2023-05-07T15:06:44.147Z,3.15
2023-05-07T15:09:12.120Z,2.78
2023-05-07T15:11:40.406Z,2.85
2023-05-07T15:14:08.777Z,2.30
2023-05-07T15:16:38.279Z,2.62
2023-05-07T15:19:06.679Z,6.03
2023-05-07T15:21:35.776Z,1.70
2023-05-07T15:24:03.951Z,1.52
2023-05-07T15:26:33.034Z,2.62
2023-05-07T15:29:01.495Z,1.92
2023-05-07T15:31:30.853Z,2.28
2023-05-07T15:34:02.288Z,1.60
2023-05-07T15:36:30.871Z,1.80
2023-05-07T15:38:59.264Z,2.00
2023-05-07T15:41:28.553Z,1.90
2023-05-07T15:43:56.983Z,2.15
2023-05-07T15:46:26.872Z,2.05
2023-05-07T15:48:58.690Z,1.85
2023-05-07T15:51:29.078Z,2.62
2023-05-07T15:53:57.480Z,1.85
2023-05-07T15:56:26.259Z,3.55
2023-05-07T15:58:54.636Z,2.30
2023-05-07T16:01:25.870Z,2.42
2023-05-07T16:03:54.447Z,2.08
2023-05-07T16:06:22.739Z,2.90
2023-05-07T16:08:52.213Z,2.55
2023-05-07T16:11:20.612Z,2.42
2023-05-07T16:13:48.684Z,2.83
2023-05-07T16:16:16.785Z,2.55
2023-05-07T16:18:45.058Z,3.10
2023-05-07T16:21:13.768Z,3.37
2023-05-07T16:23:42.165Z,3.95
2023-05-07T16:26:13.701Z,2.92
2023-05-07T16:28:41.782Z,3.17
2023-05-07T16:31:10.092Z,3.00
2023-05-07T16:33:38.495Z,4.60
2023-05-07T16:36:07.007Z,3.08
2023-05-07T16:38:35.153Z,6.10
2023-05-07T16:41:05.670Z,4.25
2023-05-07T16:43:35.188Z,3.12
2023-05-07T16:46:03.597Z,4.57
2023-05-07T16:48:32.157Z,3.08
2023-05-07T16:51:00.301Z,3.03
2023-05-07T16:53:28.552Z,2.75
2023-05-07T16:55:57.705Z,3.67
2023-05-07T16:58:27.290Z,6.35
2023-05-07T17:00:57.011Z,3.17
2023-05-07T17:03:27.045Z,3.15
2023-05-07T17:05:56.147Z,2.83
2023-05-07T17:08:24.131Z,3.95
2023-05-07T17:10:54.568Z,4.60
2023-05-07T17:13:22.947Z,2.83
2023-05-07T17:15:51.199Z,5.12
2023-05-07T17:18:25.745Z,3.40
2023-05-07T17:20:54.431Z,3.75
2023-05-07T17:23:22.639Z,3.55
2023-05-07T17:25:50.673Z,3.03
2023-05-07T17:28:18.941Z,4.62
2023-05-07T17:30:48.196Z,3.70
2023-05-07T17:33:21.527Z,3.62
2023-05-07T17:35:56.907Z,3.50
2023-05-07T17:38:25.220Z,3.22
2023-05-07T17:40:53.664Z,3.37
2023-05-07T17:43:23.437Z,3.20
2023-05-07T17:45:52.497Z,3.20
2023-05-07T17:48:21.327Z,3.65
2023-05-07T17:50:49.334Z,5.87
2023-05-07T17:53:19.373Z,3.87
2023-05-07T17:55:47.910Z,4.37
2023-05-07T17:58:16.405Z,3.58
2023-05-07T18:00:52.823Z,3.17
2023-05-07T18:04:01.531Z,4.40
2023-05-07T18:06:29.785Z,4.55
2023-05-07T18:08:59.581Z,2.70
2023-05-07T18:11:32.289Z,5.05
2023-05-07T18:14:01.013Z,3.97
2023-05-07T18:16:29.109Z,4.35
2023-05-07T18:18:57.147Z,5.22
2023-05-07T18:21:25.623Z,4.75
2023-05-07T18:23:53.714Z,3.67
2023-05-07T18:26:23.223Z,4.22
2023-05-07T18:28:51.731Z,5.32
2023-05-07T18:31:20.702Z,4.80
2023-05-07T18:33:52.498Z,4.53
2023-05-07T18:36:20.934Z,5.65
2023-05-07T18:38:51.688Z,4.22
2023-05-07T18:41:20.223Z,7.90
2023-05-07T18:43:49.683Z,5.62
2023-05-07T18:46:17.806Z,4.30
2023-05-07T18:48:46.174Z,2.92
2023-05-07T18:51:14.339Z,4.35
2023-05-07T18:53:42.705Z,6.37
2023-05-07T18:56:11.076Z,4.15
2023-05-07T18:58:39.174Z,4.30
2023-05-07T19:01:09.003Z,4.47
2023-05-07T19:03:37.702Z,3.42
2023-05-07T19:06:06.484Z,3.50
2023-05-07T19:08:34.554Z,7.72
2023-05-07T19:11:04.044Z,3.28
2023-05-07T19:13:32.520Z,4.35
2023-05-07T19:16:00.942Z,3.62
2023-05-07T19:18:31.906Z,3.90
2023-05-07T19:21:00.032Z,4.12
2023-05-07T19:23:28.517Z,5.35
2023-05-07T19:25:56.934Z,4.25
2023-05-07T19:28:26.352Z,3.35
2023-05-07T19:30:54.526Z,3.67
2023-05-07T19:33:24.417Z,4.40
2023-05-07T19:35:58.318Z,3.85
2023-05-07T19:38:27.138Z,5.20
2023-05-07T19:40:55.833Z,5.93
2023-05-07T19:43:23.930Z,6.43
2023-05-07T19:45:54.843Z,3.25
2023-05-07T19:48:23.119Z,3.95
2023-05-07T19:50:51.486Z,7.07
2023-05-07T19:53:21.162Z,3.95
2023-05-07T19:55:49.256Z,3.75
2023-05-07T19:58:17.422Z,4.60
2023-05-07T20:00:45.752Z,5.10
2023-05-07T20:03:18.612Z,3.33
2023-05-07T20:05:47.421Z,4.68
2023-05-07T20:08:15.836Z,4.30
2023-05-07T20:10:45.349Z,3.47
2023-05-07T20:13:13.771Z,3.90
2023-05-07T20:15:42.399Z,4.12
2023-05-07T20:18:10.916Z,4.18
2023-05-07T20:20:38.953Z,3.60
2023-05-07T20:23:07.901Z,5.07
2023-05-07T20:25:36.031Z,4.90
2023-05-07T20:28:05.950Z,5.75
2023-05-07T20:30:34.326Z,5.25
2023-05-07T20:33:04.274Z,6.53
2023-05-07T20:35:32.943Z,5.40
2023-05-07T20:38:01.742Z,4.53
2023-05-07T20:40:32.042Z,5.85
2023-05-07T20:43:00.466Z,5.20
2023-05-07T20:45:30.663Z,4.55
2023-05-07T20:47:58.887Z,3.67
2023-05-07T20:50:27.339Z,3.83
2023-05-07T20:52:55.997Z,4.78
2023-05-07T20:55:24.263Z,3.40
2023-05-07T20:57:52.584Z,4.78
2023-05-07T21:00:21.454Z,4.00
2023-05-07T21:02:51.139Z,4.22
2023-05-07T21:05:19.438Z,4.50
2023-05-07T21:07:47.784Z,2.92
2023-05-07T21:10:16.153Z,5.25
2023-05-07T21:12:44.398Z,3.72
2023-05-07T21:15:12.746Z,3.65
2023-05-07T21:17:41.153Z,3.55
2023-05-07T21:20:12.253Z,3.50
2023-05-07T21:22:41.067Z,3.95
2023-05-07T21:25:11.882Z,3.92
2023-05-07T21:27:41.745Z,3.03
2023-05-07T21:30:12.063Z,3.80
2023-05-07T21:32:40.260Z,2.90
2023-05-07T21:35:10.624Z,3.78
2023-05-07T21:37:39.194Z,3.20
2023-05-07T21:40:08.826Z,3.72
2023-05-07T21:42:37.388Z,3.40
2023-05-07T21:45:06.829Z,3.78
2023-05-07T21:47:35.025Z,2.90
2023-05-07T21:50:03.321Z,5.32
2023-05-07T21:52:32.704Z,3.60
2023-05-07T21:55:01.004Z,3.85
2023-05-07T21:57:33.218Z,3.35
2023-05-07T22:00:01.462Z,4.12
2023-05-07T22:02:29.974Z,3.53
2023-05-07T22:04:58.596Z,3.90
2023-05-07T22:07:26.723Z,4.70
2023-05-07T22:09:56.085Z,5.30
2023-05-07T22:12:24.405Z,3.70
2023-05-07T22:14:52.593Z,4.20
2023-05-07T22:17:20.700Z,3.83
2023-05-07T22:19:49.015Z,2.70
2023-05-07T22:22:19.063Z,3.60
2023-05-07T22:24:47.316Z,4.03
2023-05-07T22:27:17.034Z,4.00
2023-05-07T22:29:45.062Z,3.42
2023-05-07T22:32:13.458Z,4.25
2023-05-07T22:34:41.771Z,5.30
2023-05-07T22:37:09.770Z,5.05
2023-05-07T22:39:37.735Z,4.07
2023-05-07T22:42:07.465Z,6.07
2023-05-07T22:44:36.836Z,3.40
2023-05-07T22:47:05.016Z,3.45
2023-05-07T22:49:35.270Z,3.50
2023-05-07T22:52:03.322Z,3.17
2023-05-07T22:54:32.108Z,4.40
2023-05-07T22:57:00.615Z,3.72
2023-05-07T22:59:28.812Z,5.37
2023-05-07T23:01:58.256Z,5.12
2023-05-07T23:04:27.422Z,4.43
2023-05-07T23:06:55.582Z,5.78
2023-05-07T23:09:23.896Z,4.22
2023-05-07T23:11:52.144Z,3.45
2023-05-07T23:14:21.230Z,4.20
2023-05-07T23:16:50.562Z,3.65
2023-05-07T23:19:20.265Z,4.37
2023-05-07T23:21:48.410Z,4.15
2023-05-07T23:24:16.507Z,3.70
2023-05-07T23:26:45.152Z,4.78
2023-05-07T23:29:13.184Z,3.60
2023-05-07T23:31:41.316Z,3.55
2023-05-07T23:34:09.640Z,4.00
2023-05-07T23:36:38.968Z,3.50
2023-05-07T23:39:07.697Z,5.03
2023-05-07T23:41:36.135Z,5.03
2023-05-07T23:44:04.433Z,3.47
2023-05-07T23:46:32.610Z,5.20
2023-05-07T23:49:01.107Z,3.05
2023-05-07T23:51:29.176Z,4.22
2023-05-07T23:53:58.484Z,4.25
2023-05-07T23:56:26.727Z,3.35
2023-05-07T23:58:54.753Z,5.00
